createdAt,value
2018-02-08T00:02:06.968Z,25.73
2018-02-08T00:04:33.876Z,26.62
2018-02-08T00:07:01.928Z,27.08
2018-02-08T00:09:28.839Z,28.15
2018-02-08T00:11:55.764Z,28.30
2018-02-08T00:14:22.677Z,25.02
2018-02-08T00:16:50.483Z,22.65
2018-02-08T00:19:17.404Z,22.60
2018-02-08T00:21:45.091Z,24.58
2018-02-08T00:24:12.006Z,23.38
2018-02-08T00:26:39.711Z,21.73
2018-02-08T00:29:06.628Z,22.08
2018-02-08T00:31:33.560Z,26.00
2018-02-08T00:34:01.277Z,23.50
2018-02-08T00:36:28.195Z,25.67
2018-02-08T00:38:56.669Z,25.73
2018-02-08T00:41:23.715Z,31.62
2018-02-08T00:43:51.564Z,27.20
2018-02-08T00:46:18.500Z,28.67
2018-02-08T00:48:46.168Z,32.72
2018-02-08T00:51:13.868Z,34.53
2018-02-08T00:53:40.792Z,39.17
2018-02-08T00:56:07.714Z,37.78
2018-02-08T00:58:35.412Z,37.08
2018-02-08T01:01:02.361Z,30.37
2018-02-08T01:03:30.271Z,29.27
2018-02-08T01:05:57.317Z,28.90
2018-02-08T01:08:26.222Z,28.48
2018-02-08T01:10:53.900Z,28.35
2018-02-08T01:13:20.824Z,30.50
2018-02-08T01:15:50.768Z,34.53
2018-02-08T01:18:19.052Z,35.75
2018-02-08T01:20:45.959Z,37.50
2018-02-08T01:23:13.644Z,36.47
2018-02-08T01:25:40.560Z,39.00
2018-02-08T01:28:08.627Z,46.08
2018-02-08T01:30:35.560Z,42.15
2018-02-08T01:33:06.221Z,41.55
2018-02-08T01:35:33.904Z,38.92
2018-02-08T01:38:00.832Z,37.05
2018-02-08T01:40:28.511Z,31.30
2018-02-08T01:42:55.443Z,34.08
2018-02-08T01:45:23.133Z,37.10
2018-02-08T01:47:50.060Z,34.45
2018-02-08T01:50:16.984Z,33.63
2018-02-08T01:52:44.674Z,28.85
2018-02-08T01:55:11.587Z,28.10
2018-02-08T01:57:39.276Z,26.05
2018-02-08T02:00:06.192Z,25.30
2018-02-08T02:02:33.884Z,26.42
2018-02-08T02:05:00.797Z,25.88
2018-02-08T02:07:28.488Z,28.90
2018-02-08T02:09:55.403Z,27.75
2018-02-08T02:12:23.096Z,26.75
2018-02-08T02:14:50.018Z,27.35
2018-02-08T02:17:17.713Z,26.85
2018-02-08T02:19:44.619Z,27.62
2018-02-08T02:22:12.312Z,25.27
2018-02-08T02:24:39.224Z,24.77
2018-02-08T02:27:06.921Z,27.60
2018-02-08T02:29:33.845Z,25.48
2018-02-08T02:32:00.766Z,26.40
2018-02-08T02:34:28.443Z,26.17
2018-02-08T02:36:56.140Z,23.77
2018-02-08T02:39:23.044Z,26.15
2018-02-08T02:41:50.735Z,26.23
2018-02-08T02:44:17.648Z,27.27
2018-02-08T02:46:45.342Z,27.10
2018-02-08T02:49:12.259Z,23.73
2018-02-08T02:51:46.020Z,24.92
2018-02-08T02:54:12.936Z,25.17
2018-02-08T02:56:39.860Z,27.13
2018-02-08T02:59:06.789Z,24.75
2018-02-08T03:01:34.539Z,26.75
2018-02-08T03:04:01.447Z,30.83
2018-02-08T03:06:28.356Z,28.80
2018-02-08T03:08:55.296Z,27.85
2018-02-08T03:11:22.987Z,27.30
2018-02-08T03:13:49.903Z,27.15
2018-02-08T03:16:16.820Z,27.02
2018-02-08T03:18:45.255Z,26.95
2018-02-08T03:21:13.180Z,27.42
2018-02-08T03:23:40.877Z,24.17
2018-02-08T03:26:07.792Z,24.73
2018-02-08T03:28:35.484Z,27.77
2018-02-08T03:31:02.397Z,27.35
2018-02-08T03:33:31.096Z,26.23
2018-02-08T03:35:58.954Z,27.25
2018-02-08T03:38:26.652Z,26.58
2018-02-08T03:40:56.544Z,28.02
2018-02-08T03:43:23.471Z,26.15
2018-02-08T03:45:52.151Z,26.92
2018-02-08T03:48:19.842Z,26.75
2018-02-08T03:50:46.753Z,25.70
2018-02-08T03:53:15.459Z,27.85
2018-02-08T03:55:42.370Z,29.37
2018-02-08T03:58:09.301Z,26.83
2018-02-08T04:00:36.204Z,26.95
2018-02-08T04:03:03.148Z,28.02
2018-02-08T04:05:30.071Z,25.92
2018-02-08T04:07:57.768Z,26.77
2018-02-08T04:10:24.681Z,28.00
2018-02-08T04:12:52.389Z,25.23
2018-02-08T04:15:19.299Z,25.85
2018-02-08T04:17:46.232Z,28.33
2018-02-08T04:20:13.915Z,25.85
2018-02-08T04:22:40.840Z,26.12
2018-02-08T04:25:08.524Z,25.77
2018-02-08T04:27:36.380Z,26.30
2018-02-08T04:30:03.674Z,25.20
2018-02-08T04:32:30.600Z,27.08
2018-02-08T04:34:57.776Z,29.52
2018-02-08T04:37:24.704Z,25.55
2018-02-08T04:40:05.241Z,26.30
2018-02-08T04:42:44.241Z,27.27
2018-02-08T04:45:23.690Z,25.35
2018-02-08T04:47:57.413Z,26.65
2018-02-08T04:50:25.247Z,26.83
2018-02-08T04:52:52.940Z,26.37
2018-02-08T04:55:19.853Z,27.75
2018-02-08T04:57:47.544Z,26.15
2018-02-08T05:00:14.457Z,25.95
2018-02-08T05:02:42.164Z,24.63
2018-02-08T05:05:09.075Z,23.35
2018-02-08T05:07:37.132Z,26.42
2018-02-08T05:10:04.849Z,30.90
2018-02-08T05:12:32.682Z,27.75
2018-02-08T05:14:59.616Z,25.90
2018-02-08T05:17:27.292Z,24.55
2018-02-08T05:19:55.170Z,25.17
2018-02-08T05:22:22.069Z,26.20
2018-02-08T05:24:48.992Z,24.67
2018-02-08T05:27:15.901Z,26.05
2018-02-08T05:29:42.944Z,24.58
2018-02-08T05:32:09.850Z,25.92
2018-02-08T05:34:36.764Z,24.05
2018-02-08T05:37:03.693Z,24.45
2018-02-08T05:39:30.608Z,23.33
2018-02-08T05:41:57.536Z,24.00
2018-02-08T05:44:25.216Z,22.30
2018-02-08T05:46:52.135Z,25.37
2018-02-08T05:49:20.836Z,26.17
2018-02-08T05:51:48.536Z,24.63
2018-02-08T05:54:15.451Z,22.23
2018-02-08T05:56:42.384Z,24.00
2018-02-08T05:59:10.061Z,21.12
2018-02-08T06:01:36.990Z,22.17
2018-02-08T06:04:04.677Z,21.67
2018-02-08T06:06:31.603Z,21.05
2018-02-08T06:08:58.531Z,22.85
2018-02-08T06:11:25.455Z,20.15
2018-02-08T06:13:52.371Z,20.48
2018-02-08T06:16:19.286Z,20.62
2018-02-08T06:18:46.187Z,21.60
2018-02-08T06:21:13.119Z,20.15
2018-02-08T06:23:40.025Z,20.92
2018-02-08T06:26:06.980Z,21.67
2018-02-08T06:28:33.896Z,22.73
2018-02-08T06:31:01.601Z,20.88
2018-02-08T06:33:28.534Z,21.25
2018-02-08T06:35:55.469Z,24.95
2018-02-08T06:38:22.375Z,20.58
2018-02-08T06:40:49.307Z,22.80
2018-02-08T06:43:16.219Z,19.42
2018-02-08T06:45:43.152Z,18.90
2018-02-08T06:48:10.066Z,20.62
2018-02-08T06:50:37.780Z,21.73
2018-02-08T06:53:04.687Z,20.77
2018-02-08T06:55:31.627Z,21.60
2018-02-08T06:57:58.538Z,20.37
2018-02-08T07:00:27.247Z,23.87
2018-02-08T07:02:54.928Z,23.08
2018-02-08T07:05:21.863Z,23.75
2018-02-08T07:07:48.770Z,22.60
2018-02-08T07:10:15.700Z,23.38
2018-02-08T07:12:42.615Z,20.70
2018-02-08T07:15:09.537Z,21.12
2018-02-08T07:17:37.217Z,21.95
2018-02-08T07:20:04.167Z,23.00
2018-02-08T07:22:31.095Z,21.48
2018-02-08T07:24:58.023Z,23.65
2018-02-08T07:27:25.713Z,24.20
2018-02-08T07:29:52.635Z,21.92
2018-02-08T07:32:20.317Z,24.80
2018-02-08T07:34:47.239Z,21.98
2018-02-08T07:37:14.913Z,23.90
2018-02-08T07:39:41.844Z,29.63
2018-02-08T07:42:09.525Z,29.87
2018-02-08T07:44:36.469Z,23.40
2018-02-08T07:47:03.388Z,25.58
2018-02-08T07:49:31.084Z,25.17
2018-02-08T07:51:57.987Z,23.75
2018-02-08T07:54:24.914Z,25.67
2018-02-08T07:56:51.828Z,26.75
2018-02-08T07:59:18.759Z,26.30
2018-02-08T08:01:46.595Z,26.33
2018-02-08T08:04:14.295Z,23.77
2018-02-08T08:06:41.222Z,25.33
2018-02-08T08:09:08.152Z,26.55
2018-02-08T08:11:35.840Z,26.17
2018-02-08T08:14:02.894Z,26.30
2018-02-08T08:16:29.813Z,26.12
2018-02-08T08:18:57.505Z,28.12
2018-02-08T08:21:24.425Z,26.37
2018-02-08T08:23:51.338Z,28.87
2018-02-08T08:26:18.271Z,28.67
2018-02-08T08:28:45.197Z,28.60
2018-02-08T08:31:12.144Z,32.55
2018-02-08T08:33:39.052Z,27.92
2018-02-08T08:36:05.985Z,30.55
2018-02-08T08:38:32.903Z,26.98
2018-02-08T08:40:59.832Z,30.25
2018-02-08T08:43:26.744Z,29.83
2018-02-08T08:45:53.680Z,31.30
2018-02-08T08:48:20.586Z,29.30
2018-02-08T08:50:48.268Z,31.23
2018-02-08T08:53:15.176Z,29.52
2018-02-08T08:55:42.121Z,31.60
2018-02-08T08:58:09.028Z,30.80
2018-02-08T09:00:35.943Z,30.50
2018-02-08T09:03:03.629Z,31.50
2018-02-08T09:05:30.551Z,26.85
2018-02-08T09:07:57.483Z,31.50
2018-02-08T09:10:25.193Z,28.98
2018-02-08T09:12:52.094Z,32.35
2018-02-08T09:15:19.785Z,29.70
2018-02-08T09:17:46.705Z,32.70
2018-02-08T09:20:14.419Z,33.80
2018-02-08T09:22:41.379Z,29.20
2018-02-08T09:25:09.284Z,29.60
2018-02-08T09:27:36.196Z,27.37
2018-02-08T09:30:03.171Z,30.05
2018-02-08T09:32:30.080Z,29.15
2018-02-08T09:34:57.011Z,30.55
2018-02-08T09:37:23.924Z,30.25
2018-02-08T09:39:50.861Z,33.17
2018-02-08T09:42:17.776Z,33.60
2018-02-08T09:44:45.468Z,35.30
2018-02-08T09:47:12.380Z,35.53
2018-02-08T09:49:40.076Z,37.33
2018-02-08T09:52:06.993Z,42.10
2018-02-08T09:54:34.685Z,42.62
2018-02-08T09:57:01.592Z,42.88
2018-02-08T09:59:29.284Z,42.88
2018-02-08T10:01:56.188Z,39.83
2018-02-08T10:04:24.087Z,40.80
2018-02-08T10:06:50.999Z,37.58
2018-02-08T10:09:17.926Z,44.45
2018-02-08T10:11:44.832Z,42.42
2018-02-08T10:14:11.756Z,42.42
2018-02-08T10:16:39.620Z,44.83
2018-02-08T10:19:08.309Z,43.55
2018-02-08T10:21:35.985Z,42.72
2018-02-08T10:24:03.847Z,42.50
2018-02-08T10:26:31.673Z,38.15
2018-02-08T10:28:58.599Z,40.03
2018-02-08T10:31:25.510Z,33.00
2018-02-08T10:33:52.432Z,35.60
2018-02-08T10:36:20.111Z,36.35
2018-02-08T10:38:47.031Z,36.10
2018-02-08T10:41:14.699Z,37.15
2018-02-08T10:43:42.385Z,37.30
2018-02-08T10:46:09.284Z,33.90
2018-02-08T10:48:36.208Z,35.20
2018-02-08T10:51:03.113Z,35.13
2018-02-08T10:53:30.948Z,33.80
2018-02-08T10:55:59.628Z,34.25
2018-02-08T10:58:27.315Z,32.25
2018-02-08T11:00:54.219Z,33.53
2018-02-08T11:03:21.144Z,31.23
2018-02-08T11:05:48.049Z,35.00
2018-02-08T11:08:14.992Z,35.53
2018-02-08T11:10:41.919Z,33.40
2018-02-08T11:13:08.821Z,31.65
2018-02-08T11:15:35.775Z,33.83
2018-02-08T11:18:02.692Z,32.00
2018-02-08T11:20:29.615Z,34.15
2018-02-08T11:22:56.520Z,30.67
2018-02-08T11:25:23.472Z,32.95
2018-02-08T11:27:51.164Z,29.50
2018-02-08T11:30:18.096Z,29.67
2018-02-08T11:32:45.774Z,31.92
2018-02-08T11:35:12.716Z,34.33
2018-02-08T11:37:39.636Z,34.20
2018-02-08T11:40:07.340Z,31.00
2018-02-08T11:42:34.269Z,30.37
2018-02-08T11:45:01.200Z,30.70
2018-02-08T11:47:28.868Z,26.92
2018-02-08T11:49:55.799Z,29.00
2018-02-08T11:52:23.481Z,28.60
2018-02-08T11:54:50.400Z,28.10
2018-02-08T11:57:18.073Z,30.55
2018-02-08T11:59:45.760Z,29.75
2018-02-08T12:02:13.592Z,33.90
2018-02-08T12:04:41.286Z,34.38
2018-02-08T12:07:08.192Z,31.62
2018-02-08T12:09:36.948Z,32.58
2018-02-08T12:12:03.857Z,33.53
2018-02-08T12:14:31.559Z,32.80
2018-02-08T12:16:58.472Z,32.20
2018-02-08T12:19:26.326Z,33.10
2018-02-08T12:21:53.231Z,31.30
2018-02-08T12:24:21.133Z,32.33
2018-02-08T12:26:48.999Z,31.83
2018-02-08T12:29:15.928Z,30.83
2018-02-08T12:31:43.653Z,27.10
2018-02-08T12:34:10.592Z,31.50
2018-02-08T12:36:38.453Z,29.17
2018-02-08T12:39:05.376Z,28.77
2018-02-08T12:41:32.292Z,26.67
2018-02-08T12:44:00.004Z,27.55
2018-02-08T12:46:26.927Z,24.75
2018-02-08T12:48:55.808Z,23.60
2018-02-08T12:51:22.747Z,24.60
2018-02-08T12:53:50.620Z,23.02
2018-02-08T12:56:17.523Z,22.25
2018-02-08T12:58:44.476Z,20.23
2018-02-08T13:01:16.712Z,21.50
2018-02-08T13:03:43.657Z,21.20
2018-02-08T13:06:10.584Z,21.35
2018-02-08T13:08:37.503Z,22.00
2018-02-08T13:11:05.348Z,22.08
2018-02-08T13:13:32.285Z,23.85
2018-02-08T13:15:59.199Z,24.10
2018-02-08T13:18:26.120Z,22.10
2018-02-08T13:20:53.040Z,22.33
2018-02-08T13:23:20.723Z,25.02
2018-02-08T13:25:47.629Z,23.42
2018-02-08T13:28:14.566Z,23.65
2018-02-08T13:30:41.483Z,22.60
2018-02-08T13:33:08.430Z,20.90
2018-02-08T13:35:35.348Z,22.95
2018-02-08T13:38:02.284Z,26.15
2018-02-08T13:40:29.187Z,23.50
2018-02-08T13:42:56.113Z,22.70
2018-02-08T13:45:24.037Z,22.85
2018-02-08T13:47:50.977Z,22.30
2018-02-08T13:50:17.889Z,23.48
2018-02-08T13:52:45.583Z,22.40
2018-02-08T13:55:12.493Z,22.25
2018-02-08T13:57:39.429Z,21.80
2018-02-08T14:00:08.140Z,22.05
2018-02-08T14:02:35.835Z,21.30
2018-02-08T14:05:04.702Z,23.10
2018-02-08T14:07:31.645Z,21.00
2018-02-08T14:09:58.560Z,21.75
2018-02-08T14:12:25.488Z,22.73
2018-02-08T14:14:54.320Z,21.90
2018-02-08T14:17:22.033Z,20.00
2018-02-08T14:19:48.983Z,20.67
2018-02-08T14:22:15.888Z,21.23
2018-02-08T14:24:42.819Z,22.00
2018-02-08T14:27:10.513Z,21.92
2018-02-08T14:29:38.443Z,21.33
2018-02-08T14:32:06.143Z,22.92
2018-02-08T14:34:34.069Z,21.12
2018-02-08T14:37:01.764Z,23.55
2018-02-08T14:39:28.680Z,25.35
2018-02-08T14:42:00.744Z,26.12
2018-02-08T14:44:29.416Z,23.80
2018-02-08T14:46:56.344Z,23.00
2018-02-08T14:49:24.244Z,23.05
2018-02-08T14:51:51.980Z,21.60
2018-02-08T14:54:19.868Z,24.60
2018-02-08T14:56:47.560Z,23.80
2018-02-08T14:59:14.467Z,23.58
2018-02-08T15:01:41.401Z,25.08
2018-02-08T15:04:08.316Z,24.65
2018-02-08T15:06:35.247Z,26.40
2018-02-08T15:09:02.173Z,24.08
2018-02-08T15:11:29.101Z,23.95
2018-02-08T15:13:56.780Z,27.30
2018-02-08T15:16:23.724Z,25.70
2018-02-08T15:18:50.627Z,27.27
2018-02-08T15:21:17.551Z,27.75
2018-02-08T15:23:44.463Z,25.90
2018-02-08T15:26:11.367Z,26.58
2018-02-08T15:28:39.052Z,25.92
2018-02-08T15:31:05.954Z,26.45
2018-02-08T15:33:32.890Z,27.30
2018-02-08T15:36:04.164Z,24.90
2018-02-08T15:38:31.870Z,26.25
2018-02-08T15:41:00.728Z,29.30
2018-02-08T15:43:29.421Z,34.38
2018-02-08T15:45:56.358Z,35.50
2018-02-08T15:48:25.263Z,35.22
2018-02-08T15:50:52.213Z,38.03
2018-02-08T15:53:19.148Z,38.30
2018-02-08T15:55:46.081Z,33.33
2018-02-08T15:58:14.684Z,32.22
2018-02-08T16:00:43.562Z,37.20
2018-02-08T16:03:11.460Z,38.60
2018-02-08T16:05:40.321Z,37.40
2018-02-08T16:08:09.220Z,37.38
2018-02-08T16:10:37.076Z,33.95
2018-02-08T16:13:06.810Z,29.90
2018-02-08T16:15:34.781Z,30.33
2018-02-08T16:18:02.796Z,33.05
2018-02-08T16:20:30.684Z,30.98
2018-02-08T16:22:59.445Z,29.10
2018-02-08T16:25:26.378Z,29.45
2018-02-08T16:27:53.331Z,29.65
2018-02-08T16:30:20.277Z,29.55
2018-02-08T16:32:48.120Z,34.10
2018-02-08T16:35:15.974Z,36.70
2018-02-08T16:37:42.911Z,36.33
2018-02-08T16:40:09.815Z,34.28
2018-02-08T16:42:36.758Z,31.75
2018-02-08T16:45:03.769Z,28.02
2018-02-08T16:47:30.704Z,28.98
2018-02-08T16:49:57.635Z,28.50
2018-02-08T16:52:24.563Z,28.62
2018-02-08T16:54:51.489Z,31.98
2018-02-08T16:57:19.175Z,31.12
2018-02-08T16:59:46.116Z,32.50
2018-02-08T17:02:13.959Z,32.10
2018-02-08T17:04:41.800Z,30.92
2018-02-08T17:07:08.740Z,32.45
2018-02-08T17:09:35.682Z,31.85
2018-02-08T17:12:02.593Z,34.03
2018-02-08T17:14:29.530Z,33.65
2018-02-08T17:16:56.448Z,31.85
2018-02-08T17:19:24.164Z,33.35
2018-02-08T17:21:51.993Z,33.35
2018-02-08T17:24:18.936Z,32.30
2018-02-08T17:26:45.873Z,35.63
2018-02-08T17:29:13.559Z,35.42
2018-02-08T17:31:45.653Z,35.60
2018-02-08T17:34:12.592Z,34.83
2018-02-08T17:36:39.512Z,34.20
2018-02-08T17:39:06.440Z,34.90
2018-02-08T17:41:33.352Z,36.95
2018-02-08T17:44:00.349Z,34.95
2018-02-08T17:46:27.260Z,36.35
2018-02-08T17:48:54.956Z,34.30
2018-02-08T17:51:21.880Z,33.00
2018-02-08T17:53:49.592Z,32.85
2018-02-08T17:56:16.500Z,34.85
2018-02-08T17:58:43.460Z,33.60
2018-02-08T18:01:10.379Z,34.90
2018-02-08T18:03:37.292Z,31.60
2018-02-08T18:06:05.185Z,34.10
2018-02-08T18:08:32.865Z,35.63
2018-02-08T18:10:59.814Z,33.13
2018-02-08T18:13:26.759Z,37.45
2018-02-08T18:15:54.609Z,38.40
2018-02-08T18:18:24.329Z,34.90
2018-02-08T18:20:53.207Z,34.38
2018-02-08T18:23:22.015Z,34.38
2018-02-08T18:25:48.975Z,33.08
2018-02-08T18:28:15.883Z,32.85
2018-02-08T18:30:42.819Z,34.95
2018-02-08T18:33:11.500Z,41.15
2018-02-08T18:35:42.271Z,37.35
2018-02-08T18:38:09.197Z,40.47
2018-02-08T18:40:37.098Z,37.70
2018-02-08T18:43:05.049Z,37.88
2018-02-08T18:45:32.028Z,36.45
2018-02-08T18:48:00.949Z,37.13
2018-02-08T18:50:28.696Z,37.63
2018-02-08T18:52:55.611Z,35.58
2018-02-08T18:55:22.532Z,35.53
2018-02-08T18:57:51.392Z,36.28
2018-02-08T19:00:19.236Z,36.00
2018-02-08T19:02:46.150Z,39.88
2018-02-08T19:05:13.101Z,36.35
2018-02-08T19:07:40.030Z,38.03
2018-02-08T19:10:07.988Z,35.78
2018-02-08T19:12:34.950Z,35.95
2018-02-08T19:15:01.884Z,38.85
2018-02-08T19:17:28.800Z,39.50
2018-02-08T19:19:56.500Z,36.28
2018-02-08T19:22:23.421Z,36.70
2018-02-08T19:24:50.355Z,36.22
2018-02-08T19:27:18.201Z,36.90
2018-02-08T19:29:46.099Z,38.45
2018-02-08T19:32:13.022Z,36.47
2018-02-08T19:34:40.720Z,35.50
2018-02-08T19:37:07.636Z,38.90
2018-02-08T19:39:35.511Z,38.75
2018-02-08T19:42:02.429Z,39.58
2018-02-08T19:44:29.461Z,47.78
2018-02-08T19:46:57.349Z,43.55
2018-02-08T19:49:26.052Z,40.72
2018-02-08T19:51:52.975Z,43.70
2018-02-08T19:54:20.676Z,40.78
2018-02-08T19:56:47.592Z,41.47
2018-02-08T19:59:15.283Z,44.75
2018-02-08T20:01:42.198Z,43.03
2018-02-08T20:04:11.948Z,41.60
2018-02-08T20:06:38.860Z,41.50
2018-02-08T20:09:05.786Z,43.72
2018-02-08T20:11:32.721Z,40.60
2018-02-08T20:14:00.418Z,44.22
2018-02-08T20:16:27.339Z,44.30
2018-02-08T20:18:55.063Z,44.08
2018-02-08T20:21:23.956Z,46.03
2018-02-08T20:23:50.937Z,43.85
2018-02-08T20:26:19.624Z,44.28
2018-02-08T20:28:47.323Z,44.53
2018-02-08T20:31:14.240Z,47.85
2018-02-08T20:33:41.960Z,46.20
2018-02-08T20:36:08.876Z,45.63
2018-02-08T20:38:35.813Z,46.92
2018-02-08T20:41:03.652Z,48.38
2018-02-08T20:43:30.579Z,46.17
2018-02-08T20:45:57.508Z,50.10
2018-02-08T20:48:25.448Z,50.55
2018-02-08T20:50:52.364Z,52.78
2018-02-08T20:53:20.257Z,51.45
2018-02-08T20:55:48.190Z,50.95
2018-02-08T20:58:15.891Z,50.88
2018-02-08T21:00:42.847Z,48.53
2018-02-08T21:03:09.779Z,49.45
2018-02-08T21:05:36.734Z,50.67
2018-02-08T21:08:03.672Z,47.85
2018-02-08T21:10:31.592Z,48.97
2018-02-08T21:12:59.326Z,51.47
2018-02-08T21:15:27.220Z,51.72
2018-02-08T21:17:54.912Z,48.30
2018-02-08T21:20:21.843Z,49.25
2018-02-08T21:22:48.780Z,49.88
2018-02-08T21:25:15.753Z,51.45
2018-02-08T21:27:42.693Z,50.20
2018-02-08T21:30:09.624Z,49.45
2018-02-08T21:32:37.344Z,60.85
2018-02-08T21:35:04.259Z,57.97
2018-02-08T21:37:31.208Z,52.10
2018-02-08T21:39:59.145Z,50.70
2018-02-08T21:42:26.080Z,51.85
2018-02-08T21:44:53.756Z,50.53
2018-02-08T21:47:20.679Z,52.78
2018-02-08T21:49:48.360Z,49.83
2018-02-08T21:52:15.292Z,52.25
2018-02-08T21:54:44.900Z,51.20
2018-02-08T21:57:12.653Z,50.17
2018-02-08T21:59:40.332Z,51.63
2018-02-08T22:02:08.024Z,52.53
2018-02-08T22:04:35.848Z,54.10
2018-02-08T22:07:02.788Z,48.83
2018-02-08T22:09:30.492Z,51.60
2018-02-08T22:11:57.448Z,50.15
2018-02-08T22:14:24.409Z,52.97
2018-02-08T22:16:51.310Z,51.60
2018-02-08T22:19:20.192Z,53.75
2018-02-08T22:21:47.105Z,47.88
2018-02-08T22:24:14.043Z,53.75
2018-02-08T22:26:40.947Z,53.35
2018-02-08T22:29:09.793Z,52.80
2018-02-08T22:31:36.707Z,54.67
2018-02-08T22:34:03.662Z,53.97
2018-02-08T22:36:30.636Z,53.20
2018-02-08T22:38:57.595Z,56.30
2018-02-08T22:41:24.509Z,56.33
2018-02-08T22:43:52.405Z,58.53
2018-02-08T22:46:20.215Z,53.28
2018-02-08T22:48:47.135Z,57.90
2018-02-08T22:51:14.044Z,55.88
2018-02-08T22:53:41.000Z,54.30
2018-02-08T22:56:07.912Z,55.95
2018-02-08T22:58:34.840Z,55.47
2018-02-08T23:01:01.758Z,53.97
2018-02-08T23:03:28.742Z,56.15
2018-02-08T23:05:55.687Z,56.75
2018-02-08T23:08:22.616Z,57.53
2018-02-08T23:10:49.556Z,58.92
2018-02-08T23:13:16.493Z,56.75
2018-02-08T23:15:44.190Z,58.75
2018-02-08T23:18:11.143Z,57.30
2018-02-08T23:20:38.865Z,56.45
2018-02-08T23:23:05.792Z,63.05
2018-02-08T23:25:33.762Z,60.28
2018-02-08T23:28:00.695Z,57.95
2018-02-08T23:30:27.608Z,58.47
2018-02-08T23:32:54.553Z,57.72
2018-02-08T23:35:22.228Z,55.17
2018-02-08T23:37:49.165Z,58.58
2018-02-08T23:40:16.087Z,55.05
2018-02-08T23:42:42.996Z,53.55
2018-02-08T23:45:09.924Z,55.65
2018-02-08T23:47:36.836Z,54.05
2018-02-08T23:50:03.772Z,57.40
2018-02-08T23:52:31.459Z,56.50
2018-02-08T23:54:58.392Z,54.72
2018-02-08T23:57:26.191Z,52.67
2018-02-08T23:59:59.256Z,57.53
